Flight Track Log - Related Links

Times and Time Zones

All times are in EDT time to prevent confusion due to time zone crossing. See the EJA122 flight status page for this flight to view local times or setup timezone preferences in your user account.

Time Position Orientation Groundspeed Altitude Reporting Facility
EDT Latitude Longitude Course Direction KTS MPH feet Rate Location/Type
Fri 02:50:00 PM 32.7969 -111.0094 355° North  Level Estimated
Fri 02:51:00 PM 32.8941 -111.0192 355° North  Level Estimated
Fri 02:52:00 PM 32.9914 -111.0291 355° North  Level Estimated
Fri 02:53:00 PM 33.0887 -111.0390 355° North  Level Estimated
Fri 02:54:00 PM 33.1859 -111.0489 355° North  Level Estimated
Fri 02:55:00 PM 33.2832 -111.0589 355° North  Level Estimated
Fri 02:56:00 PM 33.3804 -111.0688 355° North  Level Estimated
Fri 02:57:00 PM 33.4777 -111.0788 355° North  Level Estimated
Fri 02:58:00 PM 33.5749 -111.0888 355° North  Level Estimated
Fri 02:59:00 PM 33.6722 -111.0988 355° North  Level Estimated
Fri 03:00:00 PM 33.7694 -111.1089 355° North  Level Estimated
Fri 03:01:00 PM 33.8667 -111.1189 355° North  Level Estimated
Fri 03:02:00 PM 33.9639 -111.1290 355° North  Level Estimated
Fri 03:03:00 PM 34.0612 -111.1392 355° North  Level Estimated
Fri 03:04:00 PM 34.1584 -111.1493 355° North  Level Estimated
Fri 03:05:00 PM 34.2652 -111.1605 355° North  Level Estimated
Fri 03:06:00 PM 34.3719 -111.1717 355° North  Level Estimated
Fri 03:07:00 PM 34.4787 -111.1829 355° North  Level Estimated
Fri 03:08:00 PM 34.5855 -111.1941 355° North  Level Estimated
Fri 03:09:00 PM 34.6922 -111.2054 355° North  Level Estimated
Fri 03:10:00 PM 34.7990 -111.2167 355° North  Level Estimated
Fri 03:11:00 PM 34.9058 -111.2281 355° North  Level Estimated
Fri 03:12:00 PM 35.0111 -111.2393 355° North  Level Estimated
Fri 03:13:00 PM 35.1165 -111.2505 355° North  Level Estimated
Fri 03:14:00 PM 35.2219 -111.2618 355° North  Level Estimated
Fri 03:14:33 PM 35.0931 -111.6822 355° North 436 502 26,000  Level Denver Center
Fri 03:15:00 PM 35.3272 -111.2731 355° North  Level Estimated
Fri 03:15:09 PM 35.1753 -111.6697 North 433 498 26,000  Level Los Angeles Center
Fri 03:16:00 PM 35.4326 -111.2844 355° North  Level Estimated
Fri 03:16:08 PM 35.2944 -111.6553 North 434 499 26,000  Level Albuquerque Center
Fri 03:16:11 PM 35.2944 -111.6553 North 433 498 26,000  Level Los Angeles Center
Fri 03:17:00 PM 35.5379 -111.2958 355° North  Level Estimated
Fri 03:17:10 PM 35.4139 -111.6400 North 433 498 26,000  Level Albuquerque Center
Fri 03:18:00 PM 35.6429 -111.3071 355° North  Level Estimated
Fri 03:18:12 PM 35.5311 -111.6267 North 431 496 26,000  Level Albuquerque Center
Fri 03:19:00 PM 35.7486 -111.3186 355° North  Level Estimated
Fri 03:19:14 PM 35.6497 -111.6103 North 432 497 26,000  Level Albuquerque Center
Fri 03:20:16 PM 35.7903 -111.5933 North 428 493 26,000 -194 Level Albuquerque Center
Fri 03:21:18 PM 35.9072 -111.5778 North 427 491 25,600 -462 Descending Albuquerque Center
Fri 03:21:34 PM 35.9256 -111.5753 North 426 490 25,400 -1,538 Descending Los Angeles Center
Fri 03:22:36 PM 36.0728 -111.5553 North 441 507 23,600 -1,597 Descending Los Angeles Center
Fri 03:23:38 PM 36.1864 -111.5411 North 425 489 22,100 -1,403 Descending Denver Center
Fri 03:24:40 PM 36.2969 -111.5289 North 407 468 20,700 -1,645 Descending Denver Center
Fri 03:25:42 PM 36.4058 -111.5147 North 398 458 18,700 -2,371 Descending Denver Center
Fri 03:26:44 PM 36.5122 -111.5014 North 389 448 15,800 -2,878 Descending Denver Center
Fri 03:27:45 PM 36.6178 -111.4881 North 384 442 12,800 -2,951 Descending Denver Center

Login

Don't have an account? Register now (free) for customized features, flight alerts, and more!